createdAt,value
2018-09-04T00:00:53.793Z,19.10
2018-09-04T00:01:58.158Z,19.10
2018-09-04T00:03:01.824Z,19.00
2018-09-04T00:04:05.832Z,19.10
2018-09-04T00:05:09.753Z,19.10
2018-09-04T00:06:13.577Z,19.10
2018-09-04T00:07:20.322Z,19.10
2018-09-04T00:08:24.006Z,19.10
2018-09-04T00:09:28.476Z,19.10
2018-09-04T00:10:32.899Z,19.10
2018-09-04T00:11:37.208Z,19.20
2018-09-04T00:12:40.699Z,19.20
2018-09-04T00:13:44.298Z,19.10
2018-09-04T00:14:48.817Z,19.20
2018-09-04T00:15:52.899Z,19.20
2018-09-04T00:16:57.397Z,19.20
2018-09-04T00:18:01.722Z,19.10
2018-09-04T00:19:05.337Z,19.10
2018-09-04T00:20:08.942Z,19.10
2018-09-04T00:21:12.754Z,19.10
2018-09-04T00:22:16.289Z,19.10
2018-09-04T00:23:19.939Z,19.10
2018-09-04T00:24:23.948Z,19.10
2018-09-04T00:25:27.588Z,19.10
2018-09-04T00:26:31.264Z,19.10
2018-09-04T00:27:34.770Z,19.10
2018-09-04T00:28:38.257Z,19.10
2018-09-04T00:29:42.587Z,19.10
2018-09-04T00:30:46.225Z,19.10
2018-09-04T00:31:49.924Z,19.10
2018-09-04T00:32:53.452Z,19.10
2018-09-04T00:33:56.993Z,19.10
2018-09-04T00:35:00.502Z,19.10
2018-09-04T00:36:04.089Z,19.00
2018-09-04T00:37:07.611Z,19.00
2018-09-04T00:38:11.214Z,19.10
2018-09-04T00:39:14.665Z,19.10
2018-09-04T00:40:18.205Z,19.00
2018-09-04T00:41:22.624Z,19.00
2018-09-04T00:42:26.116Z,19.00
2018-09-04T00:43:29.974Z,19.00
2018-09-04T00:44:33.490Z,19.00
2018-09-04T00:45:37.034Z,19.00
2018-09-04T00:46:40.771Z,19.00
2018-09-04T00:47:44.315Z,19.00
2018-09-04T00:48:47.850Z,19.00
2018-09-04T00:49:51.412Z,19.00
2018-09-04T00:50:55.902Z,19.00
2018-09-04T00:52:00.070Z,18.90
2018-09-04T00:53:03.607Z,18.90
2018-09-04T00:54:07.889Z,18.90
2018-09-04T00:55:13.325Z,18.90
2018-09-04T00:56:16.900Z,18.80
2018-09-04T00:57:20.424Z,18.90
2018-09-04T00:58:24.752Z,18.90
2018-09-04T00:59:29.720Z,18.90
2018-09-04T01:00:33.234Z,18.90
2018-09-04T01:01:37.549Z,18.90
2018-09-04T01:02:42.160Z,18.90
2018-09-04T01:03:46.289Z,18.90
2018-09-04T01:04:50.480Z,18.90
2018-09-04T01:05:54.404Z,18.90
2018-09-04T01:06:58.570Z,18.90
2018-09-04T01:08:03.065Z,18.90
2018-09-04T01:09:07.701Z,18.90
2018-09-04T01:10:11.398Z,18.80
2018-09-04T01:11:14.960Z,18.90
2018-09-04T01:12:18.515Z,18.90
2018-09-04T01:13:22.123Z,18.90
2018-09-04T01:14:25.630Z,19.00
2018-09-04T01:15:29.238Z,19.00
2018-09-04T01:16:33.069Z,19.00
2018-09-04T01:17:36.565Z,19.00
2018-09-04T01:18:40.348Z,19.00
2018-09-04T01:19:44.449Z,19.00
2018-09-04T01:20:47.970Z,19.00
2018-09-04T01:21:52.250Z,19.00
2018-09-04T01:22:55.882Z,19.00
2018-09-04T01:23:59.372Z,19.00
2018-09-04T01:25:03.334Z,18.90
2018-09-04T01:26:08.396Z,18.90
2018-09-04T01:27:12.587Z,18.90
2018-09-04T01:28:16.109Z,18.90
2018-09-04T01:29:19.652Z,18.90
2018-09-04T01:30:24.363Z,18.90
2018-09-04T01:31:29.215Z,18.90
2018-09-04T01:32:32.741Z,18.80
2018-09-04T01:33:36.277Z,18.80
2018-09-04T01:34:40.872Z,18.80
2018-09-04T01:35:44.433Z,18.80
2018-09-04T01:36:48.220Z,18.70
2018-09-04T01:37:52.561Z,18.70
2018-09-04T01:38:56.189Z,18.60
2018-09-04T01:40:00.001Z,18.60
2018-09-04T01:41:03.630Z,18.50
2018-09-04T01:42:07.307Z,18.50
2018-09-04T01:43:11.111Z,18.50
2018-09-04T01:44:15.487Z,18.40
2018-09-04T01:45:20.357Z,18.50
2018-09-04T01:46:24.338Z,18.50
2018-09-04T01:47:30.192Z,18.50
2018-09-04T01:48:33.824Z,18.50
2018-09-04T01:49:38.045Z,18.40
2018-09-04T01:50:42.195Z,18.40
2018-09-04T01:51:45.716Z,18.50
2018-09-04T01:52:49.234Z,18.50
2018-09-04T01:53:52.733Z,18.50
2018-09-04T01:54:57.326Z,18.50
2018-09-04T01:56:02.719Z,18.50
2018-09-04T01:57:06.832Z,18.40
2018-09-04T01:58:11.062Z,18.40
2018-09-04T01:59:15.728Z,18.40
2018-09-04T02:00:20.392Z,18.30
2018-09-04T02:01:23.964Z,18.30
2018-09-04T02:02:27.587Z,18.30
2018-09-04T02:03:31.669Z,18.30
2018-09-04T02:04:35.162Z,18.20
2018-09-04T02:05:39.991Z,18.20
2018-09-04T02:06:44.272Z,18.20
2018-09-04T02:07:48.391Z,18.20
2018-09-04T02:08:52.416Z,18.20
2018-09-04T02:11:28.067Z,18.20
2018-09-04T02:12:33.028Z,18.10
2018-09-04T02:13:37.719Z,18.10
2018-09-04T02:14:41.218Z,18.10
2018-09-04T02:15:44.785Z,18.10
2018-09-04T02:16:48.554Z,18.10
2018-09-04T02:17:52.044Z,18.10
2018-09-04T02:18:56.466Z,18.10
2018-09-04T02:20:00.329Z,18.10
2018-09-04T02:21:03.780Z,18.10
2018-09-04T02:22:07.474Z,18.10
2018-09-04T02:23:11.040Z,18.10
2018-09-04T02:24:14.675Z,18.10
2018-09-04T02:25:18.182Z,18.10
2018-09-04T02:26:21.759Z,18.10
2018-09-04T02:27:26.094Z,18.00
2018-09-04T02:28:29.924Z,18.00
2018-09-04T02:29:33.705Z,18.00
2018-09-04T02:30:37.292Z,18.00
2018-09-04T02:31:40.792Z,18.00
2018-09-04T02:32:44.283Z,18.00
2018-09-04T02:33:48.558Z,18.00
2018-09-04T02:34:52.747Z,18.00
2018-09-04T02:35:56.920Z,18.00
2018-09-04T02:37:01.131Z,18.00
2018-09-04T02:38:05.692Z,18.00
2018-09-04T02:39:10.838Z,18.00
2018-09-04T02:40:15.172Z,18.00
2018-09-04T02:41:19.069Z,18.00
2018-09-04T02:42:22.614Z,17.90
2018-09-04T02:43:26.229Z,17.90
2018-09-04T02:44:30.383Z,17.90
2018-09-04T02:45:33.951Z,17.90
2018-09-04T02:46:37.988Z,17.90
2018-09-04T02:47:42.289Z,17.90
2018-09-04T02:48:47.000Z,17.80
2018-09-04T02:49:51.222Z,17.80
2018-09-04T02:50:55.272Z,17.80
2018-09-04T02:51:58.804Z,17.80
2018-09-04T02:53:02.437Z,17.80
2018-09-04T02:54:06.708Z,17.80
2018-09-04T02:55:10.943Z,17.70
2018-09-04T02:56:15.117Z,17.70
2018-09-04T02:57:18.921Z,17.70
2018-09-04T02:58:23.366Z,17.70
2018-09-04T02:59:26.975Z,17.60
2018-09-04T03:00:31.705Z,17.60
2018-09-04T03:01:35.814Z,17.60
2018-09-04T03:02:40.816Z,17.60
2018-09-04T03:03:44.432Z,17.50
2018-09-04T03:04:50.434Z,17.50
2018-09-04T03:05:54.109Z,17.50
2018-09-04T03:06:57.756Z,17.50
2018-09-04T03:08:03.018Z,17.40
2018-09-04T03:09:08.272Z,17.40
2018-09-04T03:10:11.870Z,17.30
2018-09-04T03:11:16.310Z,17.30
2018-09-04T03:12:19.812Z,17.20
2018-09-04T03:13:23.347Z,17.20
2018-09-04T03:14:27.861Z,17.20
2018-09-04T03:15:32.005Z,17.20
2018-09-04T03:16:35.513Z,17.20
2018-09-04T03:17:40.360Z,17.20
2018-09-04T03:18:43.883Z,17.10
2018-09-04T03:19:47.553Z,17.10
2018-09-04T03:20:51.097Z,17.10
2018-09-04T03:21:54.710Z,17.10
2018-09-04T03:22:58.219Z,17.10
2018-09-04T03:24:02.651Z,17.10
2018-09-04T03:25:06.247Z,17.10
2018-09-04T03:26:09.745Z,17.10
2018-09-04T03:27:13.360Z,17.10
2018-09-04T03:28:16.949Z,17.10
2018-09-04T03:29:20.991Z,17.00
2018-09-04T03:30:24.544Z,17.00
2018-09-04T03:31:28.070Z,17.00
2018-09-04T03:32:32.106Z,17.00
2018-09-04T03:33:36.976Z,17.10
2018-09-04T03:34:40.459Z,17.10
2018-09-04T03:35:44.005Z,17.10
2018-09-04T03:36:47.778Z,17.10
2018-09-04T03:37:51.246Z,17.10
2018-09-04T03:38:54.850Z,17.20
2018-09-04T03:39:58.930Z,17.20
2018-09-04T03:41:02.738Z,17.20
2018-09-04T03:42:06.321Z,17.20
2018-09-04T03:43:09.922Z,17.20
2018-09-04T03:44:13.951Z,17.20
2018-09-04T03:45:18.219Z,17.20
2018-09-04T03:46:22.054Z,17.20
2018-09-04T03:47:26.413Z,17.20
2018-09-04T03:48:29.980Z,17.20
2018-09-04T03:49:33.776Z,17.20
2018-09-04T03:50:39.390Z,17.20
2018-09-04T03:51:43.333Z,17.30
2018-09-04T03:52:47.709Z,17.30
2018-09-04T03:53:52.498Z,17.30
2018-09-04T03:54:56.145Z,17.30
2018-09-04T03:56:00.567Z,17.30
2018-09-04T03:57:05.429Z,17.30
2018-09-04T03:58:11.270Z,17.30
2018-09-04T03:59:15.032Z,17.30
2018-09-04T04:00:18.558Z,17.30
2018-09-04T04:01:22.893Z,17.30
2018-09-04T04:02:27.323Z,17.30
2018-09-04T04:03:30.995Z,17.30
2018-09-04T04:04:34.590Z,17.30
2018-09-04T04:05:40.059Z,17.30
2018-09-04T04:06:43.754Z,17.30
2018-09-04T04:07:49.305Z,17.30
2018-09-04T04:08:53.046Z,17.30
2018-09-04T04:09:56.660Z,17.30
2018-09-04T04:11:00.261Z,17.20
2018-09-04T04:12:05.122Z,17.20
2018-09-04T04:13:08.974Z,17.20
2018-09-04T04:14:13.143Z,17.20
2018-09-04T04:15:16.844Z,17.20
2018-09-04T04:16:21.110Z,17.20
2018-09-04T04:17:24.814Z,17.20
2018-09-04T04:18:28.717Z,17.20
2018-09-04T04:19:33.229Z,17.20
2018-09-04T04:20:37.235Z,17.20
2018-09-04T04:21:40.923Z,17.10
2018-09-04T04:22:45.132Z,17.10
2018-09-04T04:23:48.821Z,17.10
2018-09-04T04:24:52.452Z,17.10
2018-09-04T04:25:56.895Z,17.00
2018-09-04T04:27:00.480Z,17.00
2018-09-04T04:28:06.254Z,17.00
2018-09-04T04:29:10.420Z,17.00
2018-09-04T04:30:14.107Z,16.90
2018-09-04T04:31:17.885Z,16.90
2018-09-04T04:32:21.698Z,16.90
2018-09-04T04:33:25.224Z,16.80
2018-09-04T04:34:28.805Z,16.80
2018-09-04T04:35:32.623Z,16.80
2018-09-04T04:36:36.258Z,16.70
2018-09-04T04:37:40.577Z,16.70
2018-09-04T04:38:44.119Z,16.70
2018-09-04T04:39:47.799Z,16.70
2018-09-04T04:40:53.463Z,16.60
2018-09-04T04:41:57.827Z,16.60
2018-09-04T04:43:01.557Z,16.50
2018-09-04T04:44:05.630Z,16.50
2018-09-04T04:45:09.527Z,16.50
2018-09-04T04:46:13.325Z,16.50
2018-09-04T04:47:21.053Z,16.40
2018-09-04T04:48:24.647Z,16.40
2018-09-04T04:49:28.656Z,16.40
2018-09-04T04:50:32.257Z,16.40
2018-09-04T04:51:36.173Z,16.40
2018-09-04T04:52:39.953Z,16.40
2018-09-04T04:53:43.654Z,16.40
2018-09-04T04:54:47.161Z,16.30
2018-09-04T04:55:50.628Z,16.30
2018-09-04T04:56:54.144Z,16.40
2018-09-04T04:57:57.669Z,16.30
2018-09-04T04:59:01.533Z,16.30
2018-09-04T05:00:06.115Z,16.30
2018-09-04T05:01:10.041Z,16.40
2018-09-04T05:02:14.313Z,16.40
2018-09-04T05:03:18.063Z,16.40
2018-09-04T05:04:22.143Z,16.40
2018-09-04T05:05:25.782Z,16.40
2018-09-04T05:06:29.605Z,16.40
2018-09-04T05:07:33.908Z,16.40
2018-09-04T05:08:37.397Z,16.50
2018-09-04T05:09:41.525Z,16.40
2018-09-04T05:10:45.342Z,16.40
2018-09-04T05:11:48.897Z,16.50
2018-09-04T05:12:52.497Z,16.50
2018-09-04T05:13:56.267Z,16.60
2018-09-04T05:15:00.150Z,16.60
2018-09-04T05:16:03.710Z,16.60
2018-09-04T05:17:07.957Z,16.60
2018-09-04T05:18:11.565Z,16.60
2018-09-04T05:19:15.156Z,16.70
2018-09-04T05:20:23.014Z,16.70
2018-09-04T05:21:26.785Z,16.80
2018-09-04T05:22:31.138Z,16.90
2018-09-04T05:23:34.947Z,17.00
2018-09-04T05:24:38.572Z,17.00
2018-09-04T05:25:42.152Z,17.10
2018-09-04T05:26:45.653Z,17.10
2018-09-04T05:27:49.219Z,17.20
2018-09-04T05:28:52.775Z,17.30
2018-09-04T05:29:56.289Z,17.30
2018-09-04T05:30:59.929Z,17.40
2018-09-04T05:33:06.674Z,17.40
2018-09-04T05:34:10.413Z,17.40
2018-09-04T05:35:15.250Z,17.50
2018-09-04T05:36:18.853Z,17.60
2018-09-04T05:37:22.475Z,17.60
2018-09-04T05:38:26.051Z,17.70
2018-09-04T05:39:30.288Z,17.70
2018-09-04T05:40:33.976Z,17.80
2018-09-04T05:41:38.077Z,17.80
2018-09-04T05:42:47.594Z,17.90
2018-09-04T05:43:54.730Z,18.00
2018-09-04T05:44:58.298Z,18.00
2018-09-04T05:46:05.310Z,18.10
2018-09-04T05:47:08.959Z,18.10
2018-09-04T05:48:14.769Z,18.10
2018-09-04T05:49:22.591Z,18.20
2018-09-04T05:50:26.190Z,18.30
2018-09-04T05:51:29.804Z,18.30
2018-09-04T05:52:34.051Z,18.30
2018-09-04T05:53:37.751Z,18.40
2018-09-04T05:54:41.398Z,18.40
2018-09-04T05:55:45.045Z,18.50
2018-09-04T05:56:49.480Z,18.50
2018-09-04T05:57:53.615Z,18.60
2018-09-04T05:58:57.155Z,18.60
2018-09-04T06:00:01.402Z,18.60
2018-09-04T06:01:05.856Z,18.70
2018-09-04T06:02:09.840Z,18.70
2018-09-04T06:03:13.361Z,18.70
2018-09-04T06:04:17.711Z,18.80
2018-09-04T06:05:22.600Z,18.80
2018-09-04T06:06:26.120Z,18.90
2018-09-04T06:07:30.542Z,18.90
2018-09-04T06:08:34.793Z,18.90
2018-09-04T06:09:39.330Z,19.00
2018-09-04T06:10:43.005Z,19.00
2018-09-04T06:11:46.538Z,19.00
2018-09-04T06:12:50.549Z,19.10
2018-09-04T06:13:54.482Z,19.20
2018-09-04T06:14:58.683Z,19.20
2018-09-04T06:16:02.240Z,19.30
2018-09-04T06:17:05.915Z,19.40
2018-09-04T06:18:09.917Z,19.50
2018-09-04T06:19:13.599Z,19.60
2018-09-04T06:20:17.278Z,19.60
2018-09-04T06:21:20.898Z,19.60
2018-09-04T06:22:24.561Z,19.70
2018-09-04T06:23:28.039Z,19.70
2018-09-04T06:24:32.968Z,19.80
2018-09-04T06:25:36.567Z,20.00
2018-09-04T06:26:40.066Z,20.20
2018-09-04T06:27:43.662Z,20.30
2018-09-04T06:28:47.210Z,20.40
2018-09-04T06:29:50.645Z,20.50
2018-09-04T06:30:54.231Z,20.60
2018-09-04T06:31:57.966Z,20.60
2018-09-04T06:33:01.692Z,20.60
2018-09-04T06:34:05.584Z,20.70
2018-09-04T06:35:09.187Z,20.80
2018-09-04T06:36:13.673Z,20.90
2018-09-04T06:37:17.745Z,20.90
2018-09-04T06:38:21.259Z,20.90
2018-09-04T06:39:24.884Z,20.90
2018-09-04T06:40:29.329Z,21.00
2018-09-04T06:41:32.845Z,21.00
2018-09-04T06:42:36.681Z,21.10
2018-09-04T06:43:41.066Z,21.20
2018-09-04T06:44:44.794Z,21.30
2018-09-04T06:45:48.254Z,21.40
2018-09-04T06:46:51.937Z,21.50
2018-09-04T06:47:55.692Z,21.50
2018-09-04T06:48:59.309Z,21.60
2018-09-04T06:50:03.198Z,21.60
2018-09-04T06:51:06.807Z,21.60
2018-09-04T06:52:11.836Z,21.60
2018-09-04T06:53:15.761Z,21.70
2018-09-04T06:54:19.444Z,21.70
2018-09-04T06:55:23.024Z,21.70
2018-09-04T06:56:26.517Z,21.70
2018-09-04T06:57:30.013Z,21.70
2018-09-04T06:58:33.644Z,21.70
2018-09-04T06:59:37.219Z,21.70
2018-09-04T07:00:40.982Z,21.70
2018-09-04T07:01:44.570Z,21.70
2018-09-04T07:02:48.072Z,21.70
2018-09-04T07:03:51.778Z,21.70
2018-09-04T07:04:55.349Z,21.70
2018-09-04T07:05:58.890Z,21.80
2018-09-04T07:07:02.507Z,21.80
2018-09-04T07:08:06.162Z,21.90
2018-09-04T07:09:11.971Z,21.90
2018-09-04T07:10:15.454Z,21.90
2018-09-04T07:11:18.995Z,21.90
2018-09-04T07:12:22.517Z,21.90
2018-09-04T07:13:26.021Z,21.80
2018-09-04T07:14:29.639Z,21.80
2018-09-04T07:15:33.357Z,21.90
2018-09-04T07:16:36.920Z,21.80
2018-09-04T07:17:40.638Z,21.90
2018-09-04T07:18:44.583Z,21.90
2018-09-04T07:19:48.063Z,21.90
2018-09-04T07:20:51.625Z,21.90
2018-09-04T07:21:55.146Z,21.90
2018-09-04T07:22:58.627Z,21.80
2018-09-04T07:24:02.262Z,21.80
2018-09-04T07:25:06.318Z,21.80
2018-09-04T07:26:09.997Z,21.80
2018-09-04T07:27:13.539Z,21.80
2018-09-04T07:28:17.026Z,21.80
2018-09-04T07:29:20.533Z,21.80
2018-09-04T07:30:24.039Z,21.80
2018-09-04T07:31:27.770Z,21.80
2018-09-04T07:32:31.237Z,21.90
2018-09-04T07:33:34.914Z,21.90
2018-09-04T07:34:43.470Z,21.90
2018-09-04T07:35:47.604Z,21.90
2018-09-04T07:36:51.509Z,21.90
2018-09-04T07:37:55.217Z,21.90
2018-09-04T07:38:58.961Z,21.90
2018-09-04T07:40:02.588Z,21.90
2018-09-04T07:41:06.235Z,21.90
2018-09-04T07:42:10.634Z,21.90
2018-09-04T07:43:15.229Z,22.00
2018-09-04T07:44:18.837Z,22.10
2018-09-04T07:45:22.333Z,22.20
2018-09-04T07:46:25.869Z,22.20
2018-09-04T07:47:29.518Z,22.20
2018-09-04T07:48:33.152Z,22.30
2018-09-04T07:49:36.833Z,22.30
2018-09-04T07:50:40.622Z,22.30
2018-09-04T07:51:44.232Z,22.40
2018-09-04T07:52:47.901Z,22.50
2018-09-04T07:53:51.560Z,22.50
2018-09-04T07:54:55.060Z,22.60
2018-09-04T07:55:58.606Z,22.60
2018-09-04T07:57:03.494Z,22.70
2018-09-04T07:58:07.091Z,22.80
2018-09-04T07:59:10.817Z,22.90
2018-09-04T08:00:14.766Z,22.90
2018-09-04T08:01:18.471Z,23.10
2018-09-04T08:02:22.009Z,23.10
2018-09-04T08:03:26.148Z,23.20
2018-09-04T08:04:29.721Z,23.20
2018-09-04T08:05:33.507Z,23.30
2018-09-04T08:06:37.362Z,23.30
2018-09-04T08:07:40.989Z,23.50
2018-09-04T08:08:44.605Z,23.60
2018-09-04T08:09:49.063Z,23.70
2018-09-04T08:10:52.848Z,23.80
2018-09-04T08:11:56.494Z,23.90
2018-09-04T08:13:00.254Z,24.20
2018-09-04T08:14:03.854Z,24.30
2018-09-04T08:15:07.765Z,24.60
2018-09-04T08:16:11.548Z,24.80
2018-09-04T08:17:15.074Z,25.00
2018-09-04T08:18:18.774Z,25.30
2018-09-04T08:19:22.344Z,25.60
2018-09-04T08:20:26.452Z,25.80
2018-09-04T08:21:30.168Z,26.10
2018-09-04T08:22:33.705Z,26.30
2018-09-04T08:23:38.078Z,26.60
2018-09-04T08:24:41.595Z,26.80
2018-09-04T08:25:45.892Z,27.20
2018-09-04T08:26:50.263Z,27.40
2018-09-04T08:27:54.137Z,27.50
2018-09-04T08:28:57.845Z,27.50
2018-09-04T08:30:01.528Z,27.50
2018-09-04T08:31:05.234Z,27.60
2018-09-04T08:32:09.074Z,27.60
2018-09-04T08:33:13.203Z,27.60
2018-09-04T08:34:16.965Z,27.70
2018-09-04T08:35:20.680Z,27.80
2018-09-04T08:36:24.259Z,27.90
2018-09-04T08:37:28.520Z,28.00
2018-09-04T08:38:32.601Z,28.30
2018-09-04T08:39:36.264Z,28.50
2018-09-04T08:40:40.616Z,28.70
2018-09-04T08:41:44.171Z,28.70
2018-09-04T08:42:48.039Z,28.70
2018-09-04T08:43:51.754Z,28.60
2018-09-04T08:44:56.386Z,28.40
2018-09-04T08:46:00.561Z,28.50
2018-09-04T08:47:04.254Z,28.50
2018-09-04T08:48:13.310Z,28.60
2018-09-04T08:49:17.137Z,28.60
2018-09-04T08:50:20.688Z,28.70
2018-09-04T08:51:24.280Z,28.70
2018-09-04T08:52:28.469Z,28.60
2018-09-04T08:53:32.100Z,28.40
2018-09-04T08:54:35.738Z,28.30
2018-09-04T08:55:39.391Z,28.20
2018-09-04T08:56:43.270Z,28.00
2018-09-04T08:57:48.492Z,27.80
2018-09-04T08:58:52.133Z,27.70
2018-09-04T08:59:55.855Z,27.80
2018-09-04T09:01:02.237Z,27.80
2018-09-04T09:02:06.342Z,28.00
2018-09-04T09:03:09.997Z,28.10
2018-09-04T09:04:14.095Z,28.20
2018-09-04T09:05:17.649Z,28.10
2018-09-04T09:06:21.467Z,28.00
2018-09-04T09:07:24.969Z,27.90
2018-09-04T09:08:28.545Z,27.70
2018-09-04T09:09:32.292Z,27.70
2018-09-04T09:10:35.967Z,27.70
2018-09-04T09:11:40.169Z,27.70
2018-09-04T09:12:44.437Z,27.80
2018-09-04T09:13:47.939Z,28.00
2018-09-04T09:14:51.658Z,28.00
2018-09-04T09:15:55.209Z,28.10
2018-09-04T09:16:58.721Z,28.20
2018-09-04T09:18:02.265Z,28.20
2018-09-04T09:19:06.233Z,28.10
2018-09-04T09:20:09.983Z,28.00
2018-09-04T09:21:13.551Z,28.00
2018-09-04T09:22:17.254Z,28.00
2018-09-04T09:23:21.337Z,27.90
2018-09-04T09:24:25.304Z,27.80
2018-09-04T09:25:28.822Z,27.80
2018-09-04T09:26:32.603Z,27.70
2018-09-04T09:27:36.220Z,27.70
2018-09-04T09:28:39.730Z,27.60
2018-09-04T09:29:43.400Z,27.60
2018-09-04T09:30:47.043Z,27.70
2018-09-04T09:31:50.580Z,27.70
2018-09-04T09:32:54.167Z,27.60
2018-09-04T09:33:57.884Z,27.60
2018-09-04T09:35:01.768Z,27.50
2018-09-04T09:36:05.687Z,27.60
2018-09-04T09:37:09.495Z,27.60
2018-09-04T09:38:12.988Z,27.60
2018-09-04T09:39:16.469Z,27.60
2018-09-04T09:40:20.183Z,27.70
2018-09-04T09:41:24.403Z,27.70
2018-09-04T09:42:28.066Z,27.90
2018-09-04T09:43:31.865Z,27.90
2018-09-04T09:44:35.723Z,27.90
2018-09-04T09:45:40.322Z,28.10
2018-09-04T09:46:44.102Z,28.10
2018-09-04T09:47:48.399Z,28.20
2018-09-04T09:48:52.206Z,28.20
2018-09-04T09:49:56.075Z,28.40
2018-09-04T09:50:59.727Z,28.50
2018-09-04T09:52:03.705Z,28.40
2018-09-04T09:53:07.638Z,28.50
2018-09-04T09:54:11.851Z,28.50
2018-09-04T09:55:15.609Z,28.30
2018-09-04T09:56:19.203Z,28.20
2018-09-04T09:57:23.065Z,28.10
2018-09-04T09:58:26.706Z,28.10
2018-09-04T09:59:30.427Z,28.30
2018-09-04T10:00:38.360Z,28.40
2018-09-04T10:01:47.339Z,28.50
2018-09-04T10:02:56.003Z,28.70
2018-09-04T10:04:03.102Z,28.80
2018-09-04T10:05:06.635Z,29.00
2018-09-04T10:06:10.241Z,29.20
2018-09-04T10:07:13.848Z,29.20
2018-09-04T10:08:17.593Z,29.30
2018-09-04T10:09:21.436Z,29.50
2018-09-04T10:10:25.161Z,29.50
2018-09-04T10:11:28.841Z,29.30
2018-09-04T10:12:32.657Z,28.90
2018-09-04T10:13:36.487Z,28.90
2018-09-04T10:14:40.143Z,28.80
2018-09-04T10:15:44.075Z,28.50
2018-09-04T10:16:47.742Z,28.40
2018-09-04T10:17:51.369Z,28.50
2018-09-04T10:18:54.946Z,28.50
2018-09-04T10:19:58.675Z,28.40
2018-09-04T10:21:02.696Z,28.40
2018-09-04T10:22:06.336Z,28.20
2018-09-04T10:23:10.103Z,28.20
2018-09-04T10:24:13.679Z,28.20
2018-09-04T10:25:17.254Z,28.20
2018-09-04T10:26:20.911Z,27.90
2018-09-04T10:27:24.942Z,27.80
2018-09-04T10:28:28.513Z,27.80
2018-09-04T10:29:32.800Z,27.90
2018-09-04T10:30:36.362Z,27.90
2018-09-04T10:31:39.934Z,27.80
2018-09-04T10:32:46.975Z,27.70
2018-09-04T10:33:50.643Z,27.60
2018-09-04T10:35:05.974Z,27.50
2018-09-04T10:36:11.646Z,27.40
2018-09-04T10:37:15.408Z,27.20
2018-09-04T10:38:19.008Z,27.30
2018-09-04T10:39:28.376Z,27.20
2018-09-04T10:40:39.077Z,27.20
2018-09-04T10:41:42.622Z,27.20
2018-09-04T10:42:46.125Z,27.20
2018-09-04T10:43:49.859Z,27.30
2018-09-04T10:44:53.343Z,27.40
2018-09-04T10:46:16.791Z,27.40
2018-09-04T10:47:20.485Z,27.50
2018-09-04T10:48:25.833Z,27.70
2018-09-04T10:49:29.338Z,27.70
2018-09-04T10:50:33.026Z,27.60
2018-09-04T10:51:36.514Z,27.60
2018-09-04T10:52:40.054Z,27.50
2018-09-04T10:53:44.057Z,27.50
2018-09-04T10:54:47.674Z,27.40
2018-09-04T10:55:51.266Z,27.30
2018-09-04T10:56:54.869Z,27.20
2018-09-04T10:57:58.374Z,27.20
2018-09-04T10:59:01.999Z,27.30
2018-09-04T11:00:05.627Z,27.30
2018-09-04T11:01:09.915Z,27.10
2018-09-04T11:02:16.318Z,27.00
2018-09-04T11:03:19.866Z,26.90
2018-09-04T11:04:24.112Z,26.80
2018-09-04T11:05:28.067Z,26.80
2018-09-04T11:06:31.657Z,26.70
2018-09-04T11:07:35.194Z,26.80
2018-09-04T11:08:38.740Z,26.70
2018-09-04T11:09:42.387Z,26.70
2018-09-04T11:10:45.932Z,26.70
2018-09-04T11:11:49.578Z,26.80
2018-09-04T11:12:53.874Z,26.80
2018-09-04T11:13:57.948Z,26.80
2018-09-04T11:15:01.981Z,26.70
2018-09-04T11:16:05.544Z,26.70
2018-09-04T11:17:09.438Z,26.80
2018-09-04T11:18:13.749Z,26.70
2018-09-04T11:19:17.519Z,26.80
2018-09-04T11:20:21.746Z,26.80
2018-09-04T11:21:25.521Z,26.90
2018-09-04T11:22:29.283Z,26.90
2018-09-04T11:23:32.930Z,26.90
2018-09-04T11:24:37.062Z,26.90
2018-09-04T11:25:41.324Z,27.00
2018-09-04T11:26:45.020Z,27.00
2018-09-04T11:27:49.303Z,27.10
2018-09-04T11:28:55.791Z,27.10
2018-09-04T11:29:59.425Z,27.10
2018-09-04T11:31:03.155Z,27.10
2018-09-04T11:32:08.084Z,27.00
2018-09-04T11:33:11.797Z,27.00
2018-09-04T11:34:15.891Z,27.00
2018-09-04T11:35:20.273Z,26.90
2018-09-04T11:36:23.941Z,26.80
2018-09-04T11:37:27.579Z,26.70
2018-09-04T11:38:31.187Z,26.60
2018-09-04T11:39:36.050Z,26.60
2018-09-04T11:40:39.789Z,26.60
2018-09-04T11:41:43.360Z,26.60
2018-09-04T11:42:46.997Z,26.60
2018-09-04T11:43:50.791Z,26.60
2018-09-04T11:44:54.393Z,26.70
2018-09-04T11:45:58.889Z,26.70
2018-09-04T11:47:03.748Z,26.70
2018-09-04T11:48:08.276Z,26.70
2018-09-04T11:49:11.944Z,26.70
2018-09-04T11:50:16.373Z,26.70
2018-09-04T11:51:26.704Z,26.80
2018-09-04T11:52:30.518Z,26.90
2018-09-04T11:53:34.076Z,27.00
2018-09-04T11:54:37.721Z,26.90
2018-09-04T11:55:41.357Z,26.90
2018-09-04T11:56:45.040Z,26.80
2018-09-04T11:57:49.215Z,26.80
2018-09-04T11:58:53.806Z,26.90
2018-09-04T11:59:57.591Z,26.80
2018-09-04T12:01:02.845Z,26.80
2018-09-04T12:02:09.047Z,26.80
2018-09-04T12:03:14.755Z,26.70
2018-09-04T12:04:19.755Z,26.90
2018-09-04T12:05:23.391Z,26.80
2018-09-04T12:06:27.101Z,26.80
2018-09-04T12:07:30.935Z,26.70
2018-09-04T12:08:34.900Z,26.80
2018-09-04T12:09:39.309Z,26.90
2018-09-04T12:10:44.255Z,26.90
2018-09-04T12:11:53.886Z,26.90
2018-09-04T12:12:57.508Z,26.90
2018-09-04T12:14:01.837Z,27.00
2018-09-04T12:15:05.782Z,27.00
2018-09-04T12:16:09.414Z,27.10
2018-09-04T12:17:13.059Z,27.10
2018-09-04T12:18:17.551Z,27.20
2018-09-04T12:19:21.188Z,27.30
2018-09-04T12:20:53.288Z,27.30
2018-09-04T12:21:56.694Z,27.30
2018-09-04T12:23:01.022Z,27.40
2018-09-04T12:24:05.501Z,27.30
2018-09-04T12:25:09.740Z,27.20
2018-09-04T12:26:14.274Z,27.00
2018-09-04T12:27:18.217Z,27.00
2018-09-04T12:28:21.734Z,26.90
2018-09-04T12:29:25.895Z,26.90
2018-09-04T12:30:29.599Z,26.90
2018-09-04T12:31:33.177Z,27.00
2018-09-04T12:32:37.478Z,27.00
2018-09-04T12:33:41.118Z,27.00
2018-09-04T12:34:44.709Z,27.00
2018-09-04T12:35:49.297Z,27.10
2018-09-04T12:36:53.731Z,27.30
2018-09-04T12:37:57.566Z,27.40
2018-09-04T12:39:01.984Z,27.60
2018-09-04T12:40:05.936Z,27.70
2018-09-04T12:41:15.152Z,27.80
2018-09-04T12:42:19.348Z,28.00
2018-09-04T12:43:23.458Z,28.10
2018-09-04T12:44:27.775Z,28.30
2018-09-04T12:45:49.737Z,28.30
2018-09-04T12:46:53.355Z,28.30
2018-09-04T12:47:57.162Z,28.60
2018-09-04T12:49:00.823Z,28.50
2018-09-04T12:50:04.546Z,28.60
2018-09-04T12:51:08.226Z,28.50
2018-09-04T12:52:12.054Z,28.60
2018-09-04T12:53:16.286Z,28.60
2018-09-04T12:54:19.918Z,28.50
2018-09-04T12:55:23.809Z,28.30
2018-09-04T12:56:27.490Z,28.10
2018-09-04T12:57:31.505Z,27.80
2018-09-04T12:58:35.922Z,27.60
2018-09-04T12:59:39.568Z,27.50
2018-09-04T13:00:46.545Z,27.40
2018-09-04T13:01:50.644Z,27.40
2018-09-04T13:02:55.075Z,27.40
2018-09-04T13:03:58.702Z,27.40
2018-09-04T13:05:02.426Z,27.40
2018-09-04T13:06:06.653Z,27.40
2018-09-04T13:07:11.809Z,27.40
2018-09-04T13:08:16.576Z,27.30
2018-09-04T13:09:21.157Z,27.30
2018-09-04T13:10:25.045Z,27.30
2018-09-04T13:11:28.732Z,27.40
2018-09-04T13:12:32.427Z,27.40
2018-09-04T13:13:36.785Z,27.40
2018-09-04T13:14:40.885Z,27.40
2018-09-04T13:15:47.524Z,27.40
2018-09-04T13:16:51.247Z,27.40
2018-09-04T13:17:54.971Z,27.50
2018-09-04T13:18:58.726Z,27.50
2018-09-04T13:20:03.799Z,27.50
2018-09-04T13:21:07.535Z,27.50
2018-09-04T13:22:11.940Z,27.60
2018-09-04T13:23:16.145Z,27.60
2018-09-04T13:24:19.693Z,27.60
2018-09-04T13:25:23.362Z,27.50
2018-09-04T13:26:27.011Z,27.50
2018-09-04T13:27:31.533Z,27.40
2018-09-04T13:28:37.590Z,27.40
2018-09-04T13:29:42.124Z,27.30
2018-09-04T13:30:46.818Z,27.30
2018-09-04T13:31:52.168Z,27.30
2018-09-04T13:32:55.767Z,27.30
2018-09-04T13:34:00.397Z,27.30
2018-09-04T13:35:04.967Z,27.30
2018-09-04T13:36:08.838Z,27.40
2018-09-04T13:37:13.673Z,27.50
2018-09-04T13:38:18.362Z,27.60
2018-09-04T13:39:22.186Z,27.70
2018-09-04T13:40:25.835Z,27.80
2018-09-04T13:41:33.234Z,27.80
2018-09-04T13:42:36.911Z,27.90
2018-09-04T13:43:42.752Z,28.00
2018-09-04T13:44:48.536Z,28.00
2018-09-04T13:45:53.464Z,27.80
2018-09-04T13:46:58.193Z,27.80
2018-09-04T13:48:02.129Z,27.80
2018-09-04T13:49:06.777Z,27.90